Time;durP1;ratioP1;P1;durP2;ratioP2;P2;SDS_P1;SDS_P2;PMS_P1;PMS_P2;Temp;Humidity;BMP_temperature;BMP_pressure;BME280_temperature;BME280_humidity;BME280_pressure;Samples;Min_cycle;Max_cycle;Signal;HPM_P1;HPM_P2
2022/01/18 00:00:45;;;;;;;;;84.00;65.33;;;;;-145.45;100.00;57426.63;4980612;28;45577;-74
2022/01/18 00:03:11;;;;;;;;;82.00;65.33;;;;;-145.45;100.00;57426.63;4980588;28;45405;-75
2022/01/18 00:05:38;;;;;;;;;77.67;61.00;;;;;-145.45;100.00;57426.63;4980880;28;45258;-75
2022/01/18 00:08:04;;;;;;;;;79.00;61.33;;;;;-145.45;100.00;57426.63;4979873;28;45651;-75
2022/01/18 00:10:32;;;;;;;;;83.67;62.67;;;;;-145.45;100.00;57426.63;4981130;28;45473;-75
2022/01/18 00:15:38;;;;;;;;;74.33;61.00;;;;;-145.45;100.00;57426.63;4981050;28;45361;-74
2022/01/18 00:23:20;;;;;;;;;85.00;63.67;;;;;-145.45;100.00;57426.63;4979399;28;45223;-74
2022/01/18 00:25:51;;;;;;;;;82.67;62.33;;;;;-145.45;100.00;57426.63;4980253;28;45299;-75
2022/01/18 00:28:17;;;;;;;;;77.00;61.00;;;;;-145.45;100.00;57426.63;4976576;28;46361;-75
2022/01/18 00:36:24;;;;;;;;;77.33;59.67;;;;;-145.45;100.00;57426.63;4979847;28;45544;-75
2022/01/18 00:38:49;;;;;;;;;78.33;62.00;;;;;-145.45;100.00;57426.63;4980325;28;45178;-75
2022/01/18 00:41:17;;;;;;;;;72.33;56.33;;;;;-145.45;100.00;57426.63;4979928;28;45334;-75
2022/01/18 00:43:43;;;;;;;;;81.33;60.67;;;;;-145.45;100.00;57426.63;4980328;28;45321;-75
2022/01/18 00:46:11;;;;;;;;;79.33;61.00;;;;;-145.45;100.00;57426.63;4980036;28;45333;-74
2022/01/18 00:48:37;;;;;;;;;81.00;57.33;;;;;-145.45;100.00;57426.63;4979929;28;45789;-74
2022/01/18 00:51:05;;;;;;;;;89.67;64.00;;;;;-145.45;100.00;57426.63;4979863;28;45440;-74
2022/01/18 00:53:33;;;;;;;;;77.67;61.00;;;;;-145.45;100.00;57426.63;4978165;28;44896;-74
2022/01/18 00:58:40;;;;;;;;;78.67;62.67;;;;;-145.45;100.00;57426.63;4979925;28;45483;-74
2022/01/18 01:01:07;;;;;;;;;81.33;61.00;;;;;-145.45;100.00;57426.63;4979576;28;45527;-74
2022/01/18 01:03:32;;;;;;;;;79.67;60.00;;;;;-145.45;100.00;57426.63;4980049;28;44891;-74
2022/01/18 01:05:58;;;;;;;;;82.67;61.00;;;;;-145.45;100.00;57426.63;4979785;28;45456;-74
2022/01/18 01:08:23;;;;;;;;;74.67;56.00;;;;;-145.45;100.00;57426.63;4979869;28;45278;-74
2022/01/18 01:10:49;;;;;;;;;78.00;58.00;;;;;-145.45;100.00;57426.63;4979491;28;45489;-74
2022/01/18 01:13:15;;;;;;;;;68.33;53.00;;;;;-145.45;100.00;57426.63;4979644;28;45378;-74
2022/01/18 01:16:02;;;;;;;;;72.33;57.67;;;;;-145.45;100.00;57426.63;4967406;28;45255;-74
2022/01/18 01:19:00;;;;;;;;;72.33;55.00;;;;;-145.45;100.00;57426.63;4979070;28;45284;-74
2022/01/18 01:43:21;;;;;;;;;61.50;49.50;;;;;-145.45;100.00;57426.63;4978512;28;45417;-75
2022/01/18 01:45:48;;;;;;;;;64.00;50.33;;;;;-145.45;100.00;57426.63;4979258;28;45343;-75
2022/01/18 01:48:14;;;;;;;;;61.50;48.00;;;;;-145.45;100.00;57426.63;4979359;28;45388;-74
2022/01/18 01:53:12;;;;;;;;;53.00;42.75;;;;;-145.45;100.00;57426.63;4978623;28;45247;-74
2022/01/18 01:55:39;;;;;;;;;52.75;39.25;;;;;-145.45;100.00;57426.63;4979216;28;45245;-74
2022/01/18 01:58:04;;;;;;;;;52.00;40.75;;;;;-145.45;100.00;57426.63;4977939;28;45250;-74
2022/01/18 02:00:30;;;;;;;;;51.25;41.75;;;;;-145.45;100.00;57426.63;4994707;28;45994;-75
2022/01/18 02:02:55;;;;;;;;;53.25;40.00;;;;;-145.45;100.00;57426.63;4978430;28;46584;-75
2022/01/18 02:05:22;;;;;;;;;47.75;42.50;;;;;-145.45;100.00;57426.63;4979643;28;45420;-74
2022/01/18 02:07:48;;;;;;;;;44.50;37.00;;;;;-145.45;100.00;57426.63;4978817;28;45326;-75
2022/01/18 02:10:14;;;;;;;;;54.25;39.75;;;;;-145.45;100.00;57426.63;4979445;28;45348;-74
2022/01/18 02:12:39;;;;;;;;;22.75;13.00;;;;;-145.45;100.00;57426.63;4978557;28;46270;-74
2022/01/18 02:15:13;;;;;;;;;52.25;42.50;;;;;-145.45;100.00;57426.63;4979441;28;45202;-74
2022/01/18 02:23:18;;;;;;;;;42.75;35.75;;;;;-145.45;100.00;57426.63;4979270;28;44876;-74
2022/01/18 02:25:43;;;;;;;;;36.25;30.75;;;;;-145.45;100.00;57426.63;4978552;28;45337;-74
2022/01/18 02:28:10;;;;;;;;;49.50;38.00;;;;;-145.45;100.00;57426.63;4990942;28;45820;-74
2022/01/18 02:30:36;;;;;;;;;46.00;37.75;;;;;-145.45;100.00;57426.63;4973926;28;45200;-74
2022/01/18 02:33:02;;;;;;;;;41.75;36.50;;;;;-145.45;100.00;57426.63;4996863;28;47186;-74
2022/01/18 02:35:31;;;;;;;;;43.50;36.25;;;;;-145.45;100.00;57426.63;4982321;28;45216;-74
2022/01/18 02:37:56;;;;;;;;;42.50;32.75;;;;;-145.45;100.00;57426.63;4981130;28;45401;-74
2022/01/18 02:40:22;;;;;;;;;35.50;26.75;;;;;-145.45;100.00;57426.63;4982259;28;45247;-74
2022/01/18 02:42:56;;;;;;;;;34.25;28.50;;;;;-145.45;100.00;57426.63;4981503;28;46286;-74
2022/01/18 02:45:22;;;;;;;;;36.50;30.50;;;;;-145.45;100.00;57426.63;4983661;28;45361;-74
2022/01/18 02:47:48;;;;;;;;;34.50;25.00;;;;;-145.45;100.00;57426.63;4981755;28;45498;-74
2022/01/18 02:50:13;;;;;;;;;36.75;31.25;;;;;-145.45;100.00;57426.63;4981897;28;45514;-74
2022/01/18 02:52:39;;;;;;;;;30.25;27.00;;;;;-145.45;100.00;57426.63;4981589;28;46299;-74
2022/01/18 02:55:05;;;;;;;;;31.75;25.00;;;;;-145.45;100.00;57426.63;4981992;28;45277;-74
2022/01/18 02:57:36;;;;;;;;;40.00;27.50;;;;;-145.45;100.00;57426.63;4981789;28;45301;-74
2022/01/18 03:00:18;;;;;;;;;31.00;24.25;;;;;-145.45;100.00;57426.63;4981886;28;45438;-74
2022/01/18 03:05:27;;;;;;;;;30.75;25.50;;;;;-145.45;100.00;57426.63;4982121;28;45202;-74
2022/01/18 03:07:53;;;;;;;;;22.50;21.75;;;;;-145.45;100.00;57426.63;4981276;28;45183;-74
2022/01/18 03:10:18;;;;;;;;;34.00;25.00;;;;;-145.45;100.00;57426.63;4982104;28;45403;-74
2022/01/18 03:12:44;;;;;;;;;36.00;28.75;;;;;-145.45;100.00;57426.63;4980698;28;45631;-74
2022/01/18 03:15:10;;;;;;;;;30.75;24.00;;;;;-145.45;100.00;57426.63;4981968;28;45219;-74
2022/01/18 03:17:36;;;;;;;;;34.00;26.00;;;;;-145.45;100.00;57426.63;4978865;28;45614;-74
2022/01/18 03:20:03;;;;;;;;;28.75;23.25;;;;;-145.45;100.00;57426.63;4981597;28;45265;-74
2022/01/18 03:22:29;;;;;;;;;39.50;30.75;;;;;-145.45;100.00;57426.63;4980906;28;45471;-74
2022/01/18 03:25:13;;;;;;;;;28.00;22.00;;;;;-145.45;100.00;57426.63;4980339;28;45433;-74
2022/01/18 03:30:23;;;;;;;;;34.00;29.25;;;;;-145.45;100.00;57426.63;4981469;28;45307;-74
2022/01/18 03:32:48;;;;;;;;;36.50;29.75;;;;;-145.45;100.00;57426.63;4979319;28;46711;-74
2022/01/18 03:35:14;;;;;;;;;28.00;26.00;;;;;-145.45;100.00;57426.63;4984487;28;45361;-74
2022/01/18 03:37:39;;;;;;;;;27.00;26.25;;;;;-145.45;100.00;57426.63;4978116;28;45819;-74
2022/01/18 03:40:06;;;;;;;;;27.75;27.50;;;;;-145.45;100.00;57426.63;4981293;28;45488;-74
2022/01/18 03:45:05;;;;;;;;;40.50;29.50;;;;;-145.45;100.00;57426.63;4981107;28;45516;-74
2022/01/18 03:47:32;;;;;;;;;34.25;26.00;;;;;-145.45;100.00;57426.63;4980812;28;45251;-74
2022/01/18 03:49:57;;;;;;;;;32.75;28.00;;;;;-145.45;100.00;57426.63;4980237;28;45383;-74
2022/01/18 03:52:23;;;;;;;;;31.50;26.00;;;;;-145.45;100.00;57426.63;4979321;28;48040;-74
2022/01/18 03:54:50;;;;;;;;;27.00;21.00;;;;;-145.45;100.00;57426.63;4980672;28;45227;-74
2022/01/18 03:57:17;;;;;;;;;34.25;28.75;;;;;-145.45;100.00;57426.63;4974731;28;45542;-74
2022/01/18 03:59:44;;;;;;;;;36.75;29.50;;;;;-145.45;100.00;57426.63;4981037;28;45290;-74
2022/01/18 04:02:09;;;;;;;;;30.50;23.00;;;;;-145.45;100.00;57426.63;4980464;28;45476;-74
2022/01/18 04:04:38;;;;;;;;;35.00;30.50;;;;;-145.45;100.00;57426.63;4980945;28;45259;-74
2022/01/18 04:07:04;;;;;;;;;33.75;28.25;;;;;-145.45;100.00;57426.63;4980661;28;45402;-74
2022/01/18 04:09:29;;;;;;;;;33.50;28.00;;;;;-145.45;100.00;57426.63;4979675;28;47218;-74
2022/01/18 04:11:55;;;;;;;;;35.50;27.25;;;;;-145.45;100.00;57426.63;4980371;28;45623;-74
2022/01/18 04:14:20;;;;;;;;;31.25;27.75;;;;;-145.45;100.00;57426.63;4979384;28;45384;-74
2022/01/18 04:17:03;;;;;;;;;32.50;27.25;;;;;-145.45;100.00;57426.63;4980304;28;45349;-74
2022/01/18 04:27:27;;;;;;;;;57.00;43.25;;;;;-145.45;100.00;57426.63;4978896;28;45459;-74
2022/01/18 04:29:52;;;;;;;;;44.50;32.50;;;;;-145.45;100.00;57426.63;4980411;28;45334;-74
2022/01/18 04:32:18;;;;;;;;;39.25;26.75;;;;;-145.45;100.00;57426.63;4979801;28;46449;-74
2022/01/18 04:34:43;;;;;;;;;33.00;28.75;;;;;-145.45;100.00;57426.63;4980585;28;45266;-74
2022/01/18 04:37:09;;;;;;;;;36.00;28.00;;;;;-145.45;100.00;57426.63;4994863;28;45485;-74
2022/01/18 04:39:39;;;;;;;;;34.25;30.25;;;;;-145.45;100.00;57426.63;4980636;28;45389;-74
2022/01/18 04:42:13;;;;;;;;;37.75;27.50;;;;;-145.45;100.00;57426.63;4978445;28;46673;-74
2022/01/18 04:49:48;;;;;;;;;40.50;29.50;;;;;-145.45;100.00;57426.63;4980195;28;45223;-74
2022/01/18 04:52:14;;;;;;;;;42.25;31.50;;;;;-145.45;100.00;57426.63;4993623;28;46374;-74
2022/01/18 04:54:42;;;;;;;;;43.50;37.50;;;;;-145.45;100.00;57426.63;4980443;28;44747;-74
2022/01/18 04:59:34;;;;;;;;;71.33;50.67;;;;;-145.45;100.00;57426.63;4980244;28;44721;-73
2022/01/18 05:02:00;;;;;;;;;29.00;25.00;;;;;-145.45;100.00;57426.63;4979620;28;45340;-74
2022/01/18 05:04:25;;;;;;;;;48.00;26.25;;;;;-145.45;100.00;57426.63;4979841;28;45330;-74
2022/01/18 05:06:53;;;;;;;;;43.75;34.25;;;;;-145.45;100.00;57426.63;4979754;28;45303;-74
2022/01/18 05:09:18;;;;;;;;;40.75;31.00;;;;;-145.45;100.00;57426.63;4980165;28;45249;-74
2022/01/18 05:12:05;;;;;;;;;32.25;25.25;;;;;-145.45;100.00;57426.63;4979597;28;45428;-73
2022/01/18 05:14:33;;;;;;;;;40.50;30.75;;;;;-145.45;100.00;57426.63;4980039;28;44664;-73
2022/01/18 05:20:00;;;;;;;;;35.25;32.75;;;;;-145.45;100.00;57426.63;4979522;28;45444;-74
2022/01/18 05:25:09;;;;;;;;;53.25;38.25;;;;;-145.45;100.00;57426.63;4979921;28;45168;-74
2022/01/18 05:27:35;;;;;;;;;50.50;39.25;;;;;-145.45;100.00;57426.63;4979268;28;45338;-73
2022/01/18 05:30:00;;;;;;;;;43.25;35.75;;;;;-145.45;100.00;57426.63;4994691;28;46152;-73
2022/01/18 05:32:25;;;;;;;;;54.25;39.00;;;;;-145.45;100.00;57426.63;4972038;28;47961;-74
2022/01/18 05:34:51;;;;;;;;;52.50;43.75;;;;;-145.45;100.00;57426.63;4979714;28;45231;-73
2022/01/18 05:37:17;;;;;;;;;50.75;38.25;;;;;-145.45;100.00;57426.63;4979074;28;45315;-73
2022/01/18 05:39:42;;;;;;;;;49.50;35.50;;;;;-145.45;100.00;57426.63;4979704;28;45282;-73
2022/01/18 05:42:08;;;;;;;;;50.25;37.50;;;;;-145.45;100.00;57426.63;4979018;28;46533;-73
2022/01/18 05:44:33;;;;;;;;;43.75;34.25;;;;;-145.45;100.00;57426.63;4979676;28;45419;-74
2022/01/18 05:46:59;;;;;;;;;39.00;30.25;;;;;-145.45;100.00;57426.63;4972835;28;45849;-73
2022/01/18 05:49:24;;;;;;;;;38.50;34.25;;;;;-145.45;100.00;57426.63;4979493;28;45274;-74
2022/01/18 05:51:49;;;;;;;;;35.75;28.25;;;;;-145.45;100.00;57426.63;4978130;28;46382;-73
2022/01/18 05:54:15;;;;;;;;;49.50;39.25;;;;;-145.45;100.00;57426.63;4977546;28;45269;-74
2022/01/18 05:56:40;;;;;;;;;68.67;54.67;;;;;-145.45;100.00;57426.63;4978102;28;45345;-73
2022/01/18 05:59:06;;;;;;;;;66.00;52.25;;;;;-145.45;100.00;57426.63;4977405;28;45921;-73
2022/01/18 06:01:34;;;;;;;;;31.75;24.00;;;;;-145.45;100.00;57426.63;4978170;28;46231;-73
2022/01/18 06:09:12;;;;;;;;;40.25;33.00;;;;;-145.45;100.00;57426.63;4980710;28;45355;-73
2022/01/18 06:11:37;;;;;;;;;29.00;25.00;;;;;-145.45;100.00;57426.63;4981331;28;45335;-73
2022/01/18 06:14:03;;;;;;;;;40.50;36.75;;;;;-145.45;100.00;57426.63;4982038;28;45411;-73
2022/01/18 06:16:29;;;;;;;;;28.75;20.75;;;;;-145.45;100.00;57426.63;4978940;28;45248;-74
2022/01/18 06:18:55;;;;;;;;;22.75;21.75;;;;;-145.45;100.00;57426.63;4990710;28;45988;-74
2022/01/18 06:21:21;;;;;;;;;36.75;29.00;;;;;-145.45;100.00;57426.63;4981170;28;45781;-74
2022/01/18 06:23:47;;;;;;;;;32.25;29.75;;;;;-145.45;100.00;57426.63;4982101;28;45246;-73
2022/01/18 06:26:15;;;;;;;;;42.00;34.50;;;;;-145.45;100.00;57426.63;4981376;28;45328;-73
2022/01/18 06:28:42;;;;;;;;;40.50;34.00;;;;;-145.45;100.00;57426.63;4980321;28;47071;-73
2022/01/18 06:31:07;;;;;;;;;36.25;28.25;;;;;-145.45;100.00;57426.63;4980524;28;45457;-74
2022/01/18 06:33:32;;;;;;;;;22.75;22.00;;;;;-145.45;100.00;57426.63;4981438;28;45393;-73
2022/01/18 06:35:58;;;;;;;;;32.25;26.75;;;;;-145.45;100.00;57426.63;4980922;28;45530;-73
2022/01/18 06:38:23;;;;;;;;;29.25;22.00;;;;;-145.45;100.00;57426.63;4980227;28;46179;-73
2022/01/18 06:40:49;;;;;;;;;33.50;24.75;;;;;-145.45;100.00;57426.63;4981018;28;46752;-73
2022/01/18 06:43:15;;;;;;;;;38.50;33.00;;;;;-145.45;100.00;57426.63;4981217;28;45274;-73
2022/01/18 06:45:41;;;;;;;;;33.50;25.25;;;;;-145.45;100.00;57426.63;4981342;28;45254;-73
2022/01/18 06:48:07;;;;;;;;;28.00;21.25;;;;;-145.45;100.00;57426.63;4981825;28;45329;-73
2022/01/18 06:50:34;;;;;;;;;34.50;26.00;;;;;-145.45;100.00;57426.63;4969322;28;45616;-73
2022/01/18 06:52:59;;;;;;;;;29.50;26.00;;;;;-145.45;100.00;57426.63;4981565;28;45432;-73
2022/01/18 06:55:25;;;;;;;;;40.25;30.75;;;;;-145.45;100.00;57426.63;4981140;28;45247;-73
2022/01/18 06:57:51;;;;;;;;;39.75;25.50;;;;;-145.45;100.00;57426.63;4979924;28;46123;-73
2022/01/18 07:00:17;;;;;;;;;34.00;26.75;;;;;-145.45;100.00;57426.63;4997253;28;47162;-73
2022/01/18 07:02:43;;;;;;;;;38.00;30.25;;;;;-145.45;100.00;57426.63;4981063;28;45353;-73
2022/01/18 07:05:08;;;;;;;;;30.00;29.75;;;;;-145.45;100.00;57426.63;4981701;28;45321;-73
2022/01/18 07:07:34;;;;;;;;;30.75;25.25;;;;;-145.45;100.00;57426.63;4996265;28;46877;-73
2022/01/18 07:09:59;;;;;;;;;37.00;27.50;;;;;-145.45;100.00;57426.63;4980597;28;46956;-74
2022/01/18 07:12:25;;;;;;;;;41.00;30.50;;;;;-145.45;100.00;57426.63;4981118;28;45337;-73
2022/01/18 07:14:51;;;;;;;;;32.25;28.75;;;;;-145.45;100.00;57426.63;4981782;28;45326;-73
2022/01/18 07:17:16;;;;;;;;;46.00;38.50;;;;;-145.45;100.00;57426.63;4980851;28;45416;-73
2022/01/18 07:19:42;;;;;;;;;38.75;27.25;;;;;-145.45;100.00;57426.63;4981353;28;45510;-73
2022/01/18 07:22:07;;;;;;;;;34.25;27.25;;;;;-145.45;100.00;57426.63;4981198;28;45252;-73
2022/01/18 07:24:39;;;;;;;;;44.00;33.25;;;;;-145.45;100.00;57426.63;4981650;28;45329;-72
2022/01/18 07:27:07;;;;;;;;;34.00;28.75;;;;;-145.45;100.00;57426.63;4980994;28;45356;-73
2022/01/18 07:29:32;;;;;;;;;38.00;31.75;;;;;-145.45;100.00;57426.63;4976609;28;45592;-73
2022/01/18 07:31:57;;;;;;;;;32.00;28.25;;;;;-145.45;100.00;57426.63;4980994;28;45226;-73
2022/01/18 07:34:23;;;;;;;;;38.50;32.25;;;;;-145.45;100.00;57426.63;4981370;28;45377;-73
2022/01/18 07:36:49;;;;;;;;;41.75;32.75;;;;;-145.45;100.00;57426.63;4994460;28;46258;-73
2022/01/18 07:39:14;;;;;;;;;34.25;28.75;;;;;-145.45;100.00;57426.63;4980660;28;45417;-73
2022/01/18 07:41:39;;;;;;;;;43.25;31.25;;;;;-145.45;100.00;57426.63;4980429;28;44813;-73
2022/01/18 07:44:05;;;;;;;;;34.50;29.00;;;;;-145.45;100.00;57426.63;4976294;28;45369;-73
2022/01/18 07:46:30;;;;;;;;;33.00;31.00;;;;;-145.45;100.00;57426.63;4973443;28;45478;-73
2022/01/18 07:48:56;;;;;;;;;37.25;30.25;;;;;-145.45;100.00;57426.63;4980863;28;46291;-74
2022/01/18 07:51:21;;;;;;;;;35.75;26.75;;;;;-145.45;100.00;57426.63;4979830;28;45229;-74
2022/01/18 07:53:46;;;;;;;;;37.50;29.00;;;;;-145.45;100.00;57426.63;4996458;28;45420;-73
2022/01/18 07:56:12;;;;;;;;;29.25;25.25;;;;;-145.45;100.00;57426.63;4995715;28;46095;-73
2022/01/18 07:58:37;;;;;;;;;40.25;30.75;;;;;-145.45;100.00;57426.63;4980902;28;46106;-74
2022/01/18 08:01:03;;;;;;;;;50.00;32.75;;;;;-145.45;100.00;57426.63;4980617;28;45366;-73
2022/01/18 08:03:29;;;;;;;;;34.25;29.75;;;;;-145.45;100.00;57426.63;4980789;28;45472;-73
2022/01/18 08:05:55;;;;;;;;;38.00;32.75;;;;;-145.45;100.00;57426.63;4980012;28;45335;-73
2022/01/18 08:08:22;;;;;;;;;52.50;36.50;;;;;-145.45;100.00;57426.63;4980714;28;45537;-73
2022/01/18 08:10:47;;;;;;;;;45.25;37.25;;;;;-145.45;100.00;57426.63;4986732;28;45284;-73
2022/01/18 08:13:13;;;;;;;;;37.00;33.00;;;;;-145.45;100.00;57426.63;4980276;28;45385;-73
2022/01/18 08:15:40;;;;;;;;;34.50;30.25;;;;;-145.45;100.00;57426.63;4980642;28;45353;-73
2022/01/18 08:18:09;;;;;;;;;38.25;31.75;;;;;-145.45;100.00;57426.63;4980069;28;45312;-73
2022/01/18 08:20:35;;;;;;;;;43.50;32.75;;;;;-145.45;100.00;57426.63;4980081;28;45373;-73
2022/01/18 08:23:00;;;;;;;;;42.50;32.75;;;;;-145.45;100.00;57426.63;4980161;28;45429;-73
2022/01/18 08:25:26;;;;;;;;;47.75;37.25;;;;;-145.45;100.00;57426.63;4980719;28;45357;-73
2022/01/18 08:27:51;;;;;;;;;42.50;33.25;;;;;-145.45;100.00;57426.63;4977824;28;47142;-73
2022/01/18 08:30:18;;;;;;;;;41.25;36.50;;;;;-145.45;100.00;57426.63;4986782;28;45750;-72
2022/01/18 08:32:44;;;;;;;;;42.25;35.75;;;;;-145.45;100.00;57426.63;4977651;28;45226;-72
2022/01/18 08:35:10;;;;;;;;;39.75;33.75;;;;;-145.45;100.00;57426.63;4980595;28;45403;-72
2022/01/18 08:37:36;;;;;;;;;40.50;36.00;;;;;-145.45;100.00;57426.63;4979668;28;45381;-72
2022/01/18 08:40:02;;;;;;;;;43.75;34.25;;;;;-145.45;100.00;57426.63;4995644;28;45456;-72
2022/01/18 08:42:28;;;;;;;;;49.50;40.25;;;;;-145.45;100.00;57426.63;4979926;28;45349;-73
2022/01/18 08:44:53;;;;;;;;;43.25;32.25;;;;;-145.45;100.00;57426.63;4980301;28;45672;-73
2022/01/18 08:47:19;;;;;;;;;116.25;96.75;;;;;-145.45;100.00;57426.63;4978359;28;47118;-73
2022/01/18 08:49:45;;;;;;;;;45.75;40.75;;;;;-145.45;100.00;57426.63;4980191;28;45250;-73
2022/01/18 08:52:11;;;;;;;;;58.50;42.50;;;;;-145.45;100.00;57426.63;4979807;28;45440;-73
2022/01/18 08:54:37;;;;;;;;;52.50;40.75;;;;;-145.45;100.00;57426.63;4980361;28;45305;-73
2022/01/18 08:57:03;;;;;;;;;45.25;37.75;;;;;-145.45;100.00;57426.63;4979481;28;46636;-73
2022/01/18 08:59:30;;;;;;;;;41.75;37.50;;;;;-145.45;100.00;57426.63;4980241;28;45305;-73
2022/01/18 09:01:57;;;;;;;;;41.00;30.75;;;;;-145.45;100.00;57426.63;4979663;28;45543;-73
2022/01/18 09:04:23;;;;;;;;;54.50;41.25;;;;;-145.45;100.00;57426.63;4980008;28;45558;-73
2022/01/18 09:06:50;;;;;;;;;43.75;37.75;;;;;-145.45;100.00;57426.63;4979425;28;45300;-73
2022/01/18 09:09:17;;;;;;;;;59.50;42.50;;;;;-145.45;100.00;57426.63;4979948;28;45345;-73
2022/01/18 09:11:45;;;;;;;;;52.25;40.50;;;;;-145.45;100.00;57426.63;4979126;28;45231;-74
2022/01/18 09:14:10;;;;;;;;;51.00;41.50;;;;;-145.45;100.00;57426.63;4973855;28;45325;-74
2022/01/18 09:16:35;;;;;;;;;49.00;41.50;;;;;-145.45;100.00;57426.63;4979543;28;45739;-73
2022/01/18 09:19:01;;;;;;;;;50.75;38.00;;;;;-145.45;100.00;57426.63;4979756;28;45324;-73
2022/01/18 09:21:27;;;;;;;;;59.75;43.25;;;;;-145.45;100.00;57426.63;4979775;28;45241;-73
2022/01/18 09:23:53;;;;;;;;;56.25;46.75;;;;;-145.45;100.00;57426.63;4979850;28;45385;-73
2022/01/18 09:26:18;;;;;;;;;56.50;45.75;;;;;-145.45;100.00;57426.63;4979453;28;46464;-72
2022/01/18 09:28:43;;;;;;;;;59.75;47.50;;;;;-145.45;100.00;57426.63;4979467;28;45346;-72
2022/01/18 09:31:10;;;;;;;;;65.00;50.00;;;;;-145.45;100.00;57426.63;4979573;28;45484;-73
2022/01/18 09:33:35;;;;;;;;;64.33;52.33;;;;;-145.45;100.00;57426.63;4979548;28;45262;-73
2022/01/18 09:36:01;;;;;;;;;60.67;50.00;;;;;-145.45;100.00;57426.63;4979079;28;45502;-73
2022/01/18 09:38:26;;;;;;;;;62.75;50.75;;;;;-145.45;100.00;57426.63;4982580;28;45459;-73
2022/01/18 09:40:52;;;;;;;;;67.25;50.75;;;;;-145.45;100.00;57426.63;4981646;28;46046;-73
2022/01/18 09:43:17;;;;;;;;;58.50;43.50;;;;;-145.45;100.00;57426.63;4982935;28;45171;-73
2022/01/18 09:45:45;;;;;;;;;53.50;44.25;;;;;-145.45;100.00;57426.63;4982787;28;45342;-72
2022/01/18 09:48:11;;;;;;;;;60.50;47.50;;;;;-145.45;100.00;57426.63;4982854;28;45318;-73
2022/01/18 09:50:39;;;;;;;;;58.75;45.50;;;;;-145.45;100.00;57426.63;4983424;28;45226;-72
2022/01/18 09:53:08;;;;;;;;;62.75;46.25;;;;;-145.45;100.00;57426.63;4982367;28;44839;-73
2022/01/18 09:55:34;;;;;;;;;60.50;46.25;;;;;-145.45;100.00;57426.63;4983190;28;45181;-73
2022/01/18 09:58:03;;;;;;;;;64.50;51.75;;;;;-145.45;100.00;57426.63;4982165;28;45436;-72
2022/01/18 10:00:30;;;;;;;;;65.50;50.00;;;;;-145.45;100.00;57426.63;4983267;28;45432;-73
2022/01/18 10:02:57;;;;;;;;;60.50;46.50;;;;;-145.45;100.00;57426.63;4981988;28;45258;-73
2022/01/18 10:05:32;;;;;;;;;62.00;49.75;;;;;-145.45;100.00;57426.63;4981611;28;48177;-72
2022/01/18 10:08:03;;;;;;;;;50.25;39.00;;;;;-145.45;100.00;57426.63;4982198;28;45975;-73
2022/01/18 10:10:43;;;;;;;;;43.00;40.75;;;;;-145.45;100.00;57426.63;4983170;28;45404;-73
2022/01/18 10:13:16;;;;;;;;;41.75;36.50;;;;;-145.45;100.00;57426.63;4982138;28;45247;-72
2022/01/18 10:15:59;;;;;;;;;44.00;39.50;;;;;-145.45;100.00;57426.63;4982802;28;45427;-72
2022/01/18 10:18:39;;;;;;;;;62.50;47.50;;;;;-145.45;100.00;57426.63;4980360;28;45318;-72
2022/01/18 10:21:06;;;;;;;;;154.00;138.75;;;;;-145.45;100.00;57426.63;4982270;28;45388;-72
2022/01/18 10:23:33;;;;;;;;;245.25;201.50;;;;;-145.45;100.00;57426.63;4988862;28;46463;-73
2022/01/18 10:26:14;;;;;;;;;83.50;63.00;;;;;-145.45;100.00;57426.63;4981922;28;45339;-72
2022/01/18 10:28:40;;;;;;;;;64.00;47.50;;;;;-145.45;100.00;57426.63;4978207;28;45426;-73
2022/01/18 10:31:27;;;;;;;;;57.25;41.25;;;;;-145.45;100.00;57426.63;4981847;28;45294;-72
2022/01/18 10:34:12;;;;;;;;;46.75;37.75;;;;;-145.45;100.00;57426.63;4979723;28;45294;-73
2022/01/18 10:37:08;;;;;;;;;44.00;37.75;;;;;-145.45;100.00;57426.63;4979513;28;47022;-72
2022/01/18 10:39:40;;;;;;;;;53.75;45.00;;;;;-145.45;100.00;57426.63;4971990;28;45338;-72
2022/01/18 10:42:17;;;;;;;;;49.00;39.75;;;;;-145.45;100.00;57426.63;4981871;28;45343;-72
2022/01/18 10:44:45;;;;;;;;;50.50;39.00;;;;;-145.45;100.00;57426.63;4981176;28;46354;-72
2022/01/18 10:47:10;;;;;;;;;37.75;36.00;;;;;-145.45;100.00;57426.63;4975382;28;46618;-72
2022/01/18 10:49:43;;;;;;;;;39.25;34.25;;;;;-145.45;100.00;57426.63;4980867;28;45400;-72
2022/01/18 10:52:13;;;;;;;;;51.25;37.75;;;;;-145.45;100.00;57426.63;4981172;28;45477;-72
2022/01/18 10:54:46;;;;;;;;;47.00;40.00;;;;;-145.45;100.00;57426.63;4982534;28;45267;-72
2022/01/18 10:57:19;;;;;;;;;162.00;141.25;;;;;-145.45;100.00;57426.63;4981389;28;46532;-72
2022/01/18 10:59:44;;;;;;;;;46.00;36.00;;;;;-145.45;100.00;57426.63;4982162;28;45532;-72
2022/01/18 11:02:15;;;;;;;;;48.25;41.50;;;;;-145.45;100.00;57426.63;4981673;28;45448;-72
2022/01/18 11:04:53;;;;;;;;;70.25;55.75;;;;;-145.45;100.00;57426.63;4981909;28;45239;-72
2022/01/18 11:07:24;;;;;;;;;59.75;47.25;;;;;-145.45;100.00;57426.63;4981207;28;45522;-72
2022/01/18 11:09:50;;;;;;;;;56.00;46.00;;;;;-145.45;100.00;57426.63;4981191;28;45499;-73
2022/01/18 11:12:19;;;;;;;;;34.25;28.25;;;;;-145.45;100.00;57426.63;4980798;28;45322;-72
2022/01/18 11:14:47;;;;;;;;;29.25;23.00;;;;;-145.45;100.00;57426.63;4980906;28;46279;-72
2022/01/18 11:17:24;;;;;;;;;42.25;37.75;;;;;-145.45;100.00;57426.63;4980408;28;45605;-72
2022/01/18 11:19:52;;;;;;;;;31.00;26.25;;;;;-145.45;100.00;57426.63;4977762;28;45392;-72
2022/01/18 11:22:18;;;;;;;;;40.25;35.00;;;;;-145.45;100.00;57426.63;4979349;28;45488;-72
2022/01/18 11:24:45;;;;;;;;;64.75;48.00;;;;;-145.45;100.00;57426.63;4981074;28;45340;-72
2022/01/18 11:27:14;;;;;;;;;34.00;31.75;;;;;-145.45;100.00;57426.63;4980669;28;45571;-72
2022/01/18 11:29:41;;;;;;;;;29.00;22.00;;;;;-145.45;100.00;57426.63;4979985;28;45449;-72
2022/01/18 11:32:09;;;;;;;;;37.25;32.25;;;;;-145.45;100.00;57426.63;4977740;28;45416;-73
2022/01/18 11:34:53;;;;;;;;;50.75;41.25;;;;;-145.45;100.00;57426.63;4981353;28;45549;-73
2022/01/18 11:38:04;;;;;;;;;31.25;27.00;;;;;-145.45;100.00;57426.63;4974038;28;47586;-72
2022/01/18 11:40:53;;;;;;;;;30.00;25.50;;;;;-145.45;100.00;57426.63;4978529;28;45246;-72
2022/01/18 11:43:38;;;;;;;;;58.00;49.00;;;;;-145.45;100.00;57426.63;4979119;28;45374;-72
2022/01/18 11:46:40;;;;;;;;;31.25;29.00;;;;;-145.45;100.00;57426.63;4980832;28;45342;-72
2022/01/18 11:49:23;;;;;;;;;23.25;20.00;;;;;-145.45;100.00;57426.63;4959526;28;45504;-72
2022/01/18 11:51:53;;;;;;;;;32.50;21.00;;;;;-145.45;100.00;57426.63;4979162;28;45224;-73
2022/01/18 11:56:59;;;;;;;;;25.25;20.75;;;;;-145.45;100.00;57426.63;4971163;28;45334;-72
2022/01/18 11:59:27;;;;;;;;;22.25;21.25;;;;;-145.45;100.00;57426.63;4980902;28;45337;-73
2022/01/18 12:01:58;;;;;;;;;21.50;18.25;;;;;-145.45;100.00;57426.63;4980043;28;45291;-73
2022/01/18 12:07:31;;;;;;;;;20.25;14.50;;;;;-145.45;100.00;57426.63;4980246;28;45196;-72
2022/01/18 12:09:56;;;;;;;;;16.75;15.75;;;;;-145.45;100.00;57426.63;4979887;28;45490;-72
2022/01/18 12:12:45;;;;;;;;;17.25;13.75;;;;;-145.45;100.00;57426.63;4979569;28;46357;-72
2022/01/18 12:15:17;;;;;;;;;46.75;40.75;;;;;-145.45;100.00;57426.63;4980306;28;45393;-72
2022/01/18 12:18:01;;;;;;;;;10.75;9.25;;;;;-145.45;100.00;57426.63;4979405;28;45339;-73
2022/01/18 12:20:46;;;;;;;;;22.50;18.50;;;;;-145.45;100.00;57426.63;4979160;28;45301;-73
2022/01/18 12:23:17;;;;;;;;;57.25;44.50;;;;;-145.45;100.00;57426.63;4978168;28;45267;-73
2022/01/18 12:26:03;;;;;;;;;11.25;9.75;;;;;-145.45;100.00;57426.63;4980301;28;45187;-72